Time;durP1;ratioP1;P1;durP2;ratioP2;P2;SDS_P1;SDS_P2;PMS_P1;PMS_P2;Temp;Humidity;BMP_temperature;BMP_pressure;BME280_temperature;BME280_humidity;BME280_pressure;Samples;Min_cycle;Max_cycle;Signal;HPM_P1;HPM_P2
2021/01/29 00:02:16;;;;;;;5.57;3.25;;;;;;;1.24;98.72;99486.50;5223566;28;20621;-81
2021/01/29 00:04:46;;;;;;;7.70;3.80;;;;;;;1.10;99.28;99493.59;5222691;28;20029;-79
2021/01/29 00:07:17;;;;;;;6.05;3.67;;;;;;;0.97;99.80;99494.69;5224040;28;20021;-79
2021/01/29 00:09:47;;;;;;;9.07;3.63;;;;;;;1.04;99.98;99495.44;5223732;28;20032;-80
2021/01/29 00:12:18;;;;;;;6.45;3.63;;;;;;;1.23;98.27;99496.84;5226822;28;20044;-80
2021/01/29 00:14:48;;;;;;;5.55;2.92;;;;;;;1.22;96.58;99483.13;5220134;28;20175;-81
2021/01/29 00:17:19;;;;;;;9.50;3.25;;;;;;;1.22;97.30;99484.88;5222641;28;20025;-81
2021/01/29 00:19:49;;;;;;;7.55;3.30;;;;;;;1.25;97.25;99477.91;5222250;28;20033;-78
2021/01/29 00:22:19;;;;;;;6.20;3.00;;;;;;;1.15;97.15;99484.09;5229932;28;20024;-78
2021/01/29 00:24:50;;;;;;;5.30;2.70;;;;;;;1.21;97.18;99490.88;5222042;28;20024;-79
2021/01/29 00:27:20;;;;;;;6.38;2.60;;;;;;;1.16;97.52;99483.22;5222414;28;20487;-81
2021/01/29 00:29:50;;;;;;;4.55;2.70;;;;;;;1.26;95.74;99487.34;5223956;28;20028;-80
2021/01/29 00:32:20;;;;;;;4.90;2.47;;;;;;;1.28;95.44;99477.91;5225457;28;20029;-80
2021/01/29 00:34:51;;;;;;;7.90;3.35;;;;;;;1.19;97.09;99472.03;5221800;28;20151;-81
2021/01/29 00:37:21;;;;;;;7.15;3.38;;;;;;;1.21;97.41;99478.03;5219890;28;20021;-81
2021/01/29 00:39:51;;;;;;;8.63;3.97;;;;;;;0.99;98.29;99461.19;5221788;28;20199;-80
2021/01/29 00:42:21;;;;;;;7.53;3.53;;;;;;;0.84;99.67;99462.28;5222213;28;20025;-81
2021/01/29 00:44:52;;;;;;;7.47;3.33;;;;;;;0.97;99.65;99460.38;5221682;28;20033;-79
2021/01/29 00:47:22;;;;;;;6.93;3.47;;;;;;;0.89;99.16;99447.63;5221887;28;20036;-80
2021/01/29 00:49:52;;;;;;;6.55;3.03;;;;;;;0.90;100.00;99449.34;5221118;28;20055;-80
2021/01/29 00:52:23;;;;;;;7.07;3.20;;;;;;;1.10;99.50;99452.44;5221750;28;20033;-80
2021/01/29 00:54:53;;;;;;;8.10;3.25;;;;;;;1.26;98.19;99451.31;5221678;28;20028;-81
2021/01/29 00:57:23;;;;;;;7.20;3.15;;;;;;;1.54;98.71;99441.44;5220795;28;20021;-81
2021/01/29 00:59:53;;;;;;;9.02;3.30;;;;;;;1.44;98.10;99438.13;5221642;28;20029;-81
2021/01/29 01:02:24;;;;;;;9.25;3.50;;;;;;;0.78;99.53;99428.97;5221854;28;20051;-81
2021/01/29 01:04:54;;;;;;;6.95;3.30;;;;;;;0.85;100.00;99433.13;5218253;28;20040;-78
2021/01/29 01:07:24;;;;;;;7.95;3.33;;;;;;;0.97;100.00;99435.53;5206353;28;20057;-80
2021/01/29 01:09:55;;;;;;;6.55;3.25;;;;;;;1.29;98.45;99435.00;5223199;28;20017;-82
2021/01/29 01:12:25;;;;;;;10.43;3.45;;;;;;;1.16;97.52;99424.06;5225654;28;20033;-80
2021/01/29 01:14:55;;;;;;;10.75;3.33;;;;;;;1.09;98.27;99430.16;5225661;28;20059;-80
2021/01/29 01:17:25;;;;;;;7.80;3.20;;;;;;;0.95;98.95;99423.56;5225644;28;20056;-80
2021/01/29 01:19:56;;;;;;;6.22;3.30;;;;;;;0.92;99.73;99427.00;5225620;28;20037;-81
2021/01/29 01:22:26;;;;;;;6.38;3.13;;;;;;;1.03;100.00;99424.31;5225804;28;20642;-80
2021/01/29 01:24:56;;;;;;;10.00;3.58;;;;;;;1.27;98.47;99424.72;5225392;28;20399;-81
2021/01/29 01:27:26;;;;;;;7.57;3.10;;;;;;;1.38;97.80;99422.81;5223325;28;20044;-80
2021/01/29 01:29:57;;;;;;;8.93;2.90;;;;;;;1.47;97.91;99420.09;5226504;28;20016;-80
2021/01/29 01:32:27;;;;;;;8.45;3.35;;;;;;;1.58;97.25;99415.59;5224922;28;20060;-79
2021/01/29 01:34:58;;;;;;;8.13;3.13;;;;;;;1.52;97.37;99410.56;5224914;28;20522;-81
2021/01/29 01:37:28;;;;;;;8.18;3.22;;;;;;;1.40;97.19;99413.34;5225992;28;20119;-80
2021/01/29 01:39:58;;;;;;;10.20;2.97;;;;;;;1.44;96.78;99420.13;5224978;28;20036;-81
2021/01/29 01:42:29;;;;;;;8.30;3.22;;;;;;;1.56;97.29;99411.34;5224002;28;20025;-80
2021/01/29 01:44:59;;;;;;;7.97;3.40;;;;;;;1.47;97.41;99404.66;5224245;28;20691;-81
2021/01/29 01:47:33;;;;;;;8.27;3.28;;;;;;;1.44;97.63;99399.53;5226832;28;20078;-81
2021/01/29 01:50:16;;;;;;;7.43;3.23;;;;;;;0.99;99.09;99397.78;5225099;28;20029;-80
2021/01/29 01:52:46;;;;;;;12.05;3.78;;;;;;;0.71;100.00;99387.97;5228726;28;20040;-79
2021/01/29 01:55:22;;;;;;;8.05;3.63;;;;;;;0.65;100.00;99378.63;5229044;28;20025;-81
2021/01/29 01:57:55;;;;;;;7.40;3.70;;;;;;;0.77;100.00;99373.28;5229139;28;20375;-78
2021/01/29 02:00:28;;;;;;;8.43;3.75;;;;;;;0.79;100.00;99373.25;5229337;28;20028;-81
2021/01/29 02:03:12;;;;;;;10.98;3.97;;;;;;;0.88;100.00;99353.38;5228387;28;20028;-79
2021/01/29 02:05:42;;;;;;;6.93;3.70;;;;;;;1.07;99.95;99341.91;5231694;28;20770;-81
2021/01/29 02:08:15;;;;;;;7.68;3.80;;;;;;;1.00;99.92;99337.75;5228375;28;20112;-82
2021/01/29 02:10:46;;;;;;;8.30;4.63;;;;;;;0.89;100.00;99339.66;5228692;28;20104;-78
2021/01/29 02:13:16;;;;;;;8.05;4.10;;;;;;;1.02;99.72;99337.72;5228388;28;20117;-81
2021/01/29 02:15:50;;;;;;;9.68;4.45;;;;;;;1.09;99.91;99337.56;5229067;28;20025;-80
2021/01/29 02:18:53;;;;;;;7.60;4.57;;;;;;;1.14;100.00;99335.78;5229025;28;20275;-81
2021/01/29 02:21:32;;;;;;;8.32;4.22;;;;;;;1.21;99.96;99327.06;5227989;28;20412;-79
2021/01/29 02:24:18;;;;;;;12.52;4.80;;;;;;;1.24;99.58;99321.88;5228593;28;20025;-82
2021/01/29 02:27:13;;;;;;;9.57;4.57;;;;;;;1.17;99.19;99319.44;5224853;28;20025;-81
2021/01/29 02:30:12;;;;;;;9.18;4.85;;;;;;;1.37;98.38;99302.75;5229343;28;20025;-80
2021/01/29 02:33:01;;;;;;;9.65;4.57;;;;;;;1.40;98.28;99292.41;5227237;28;20021;-80
2021/01/29 02:35:56;;;;;;;11.57;4.55;;;;;;;1.27;98.44;99279.81;5228775;28;20025;-82
2021/01/29 02:39:11;;;;;;;7.72;4.63;;;;;;;1.20;99.24;99273.09;5227974;28;20276;-81
2021/01/29 02:42:01;;;;;;;8.27;4.63;;;;;;;1.24;98.89;99274.72;5227882;28;20076;-81
2021/01/29 02:44:57;;;;;;;9.52;5.00;;;;;;;1.19;99.56;99272.25;5228503;28;20025;-82
2021/01/29 02:47:30;;;;;;;9.60;4.70;;;;;;;1.26;98.76;99258.38;5227662;28;20084;-82
2021/01/29 02:50:21;;;;;;;8.73;5.00;;;;;;;1.14;100.00;99250.91;5228389;28;20143;-80
2021/01/29 02:53:07;;;;;;;9.77;5.35;;;;;;;1.12;100.00;99244.94;5223154;28;20025;-81
2021/01/29 02:55:45;;;;;;;10.55;5.95;;;;;;;1.11;100.00;99239.81;5223427;28;20383;-80
2021/01/29 02:58:31;;;;;;;9.65;5.18;;;;;;;1.34;100.00;99248.78;5223879;28;20029;-81
2021/01/29 03:01:22;;;;;;;;;;;;;;;1.35;99.84;99232.47;5230006;28;20032;-81
2021/01/29 03:04:19;;;;;;;12.48;7.03;;;;;;;1.35;99.54;99229.91;5222277;28;19912;-79
2021/01/29 03:07:09;;;;;;;16.35;7.03;;;;;;;1.38;99.72;99221.28;5224122;28;20021;-80
2021/01/29 03:09:51;;;;;;;9.00;5.10;;;;;;;1.16;100.00;99228.56;5224071;28;20036;-81
2021/01/29 03:12:44;;;;;;;8.75;4.97;;;;;;;1.28;99.91;99230.91;5222965;28;20025;-80
2021/01/29 03:15:30;;;;;;;10.95;5.30;;;;;;;1.44;97.76;99216.81;5223894;28;20024;-82
2021/01/29 03:18:15;;;;;;;8.95;4.90;;;;;;;1.47;98.11;99211.63;5224084;28;20033;-82
2021/01/29 03:21:06;;;;;;;10.90;5.40;;;;;;;1.37;98.58;99210.13;5222859;28;20110;-80
2021/01/29 03:23:43;;;;;;;8.77;5.63;;;;;;;1.33;99.36;99203.34;5225569;28;20121;-80
2021/01/29 03:26:23;;;;;;;11.15;6.10;;;;;;;1.39;98.71;99194.66;5223785;28;20029;-81
2021/01/29 03:28:58;;;;;;;9.20;5.20;;;;;;;1.10;100.00;99173.84;5222130;28;20017;-81
2021/01/29 03:31:31;;;;;;;9.77;5.35;;;;;;;1.23;99.40;99165.00;5222376;28;20137;-80
2021/01/29 03:34:10;;;;;;;10.93;5.50;;;;;;;1.27;98.59;99156.31;5219904;28;20021;-80
2021/01/29 03:36:49;;;;;;;9.07;5.07;;;;;;;1.35;98.50;99142.41;5223287;28;20105;-81
2021/01/29 03:39:29;;;;;;;12.52;5.32;;;;;;;1.22;99.01;99127.28;5223069;28;20127;-81
2021/01/29 03:42:14;;;;;;;11.07;5.00;;;;;;;1.02;99.10;99114.84;5223005;28;20060;-80
2021/01/29 03:45:25;;;;;;;8.43;4.65;;;;;;;0.97;99.85;99101.25;5221467;28;20100;-81
2021/01/29 03:48:11;;;;;;;9.13;4.60;;;;;;;1.00;100.00;99098.59;5226988;28;20033;-81
2021/01/29 03:50:44;;;;;;;8.23;4.75;;;;;;;1.07;99.85;99100.16;5222174;28;20031;-81
2021/01/29 03:53:29;;;;;;;8.38;4.60;;;;;;;1.29;98.39;99100.53;5224138;28;20024;-80
2021/01/29 03:56:08;;;;;;;10.98;5.28;;;;;;;1.23;98.08;99093.78;5222637;28;20566;-81
2021/01/29 03:58:59;;;;;;;9.05;4.40;;;;;;;1.26;97.45;99083.44;5222015;28;20041;-81
2021/01/29 04:01:39;;;;;;;8.88;4.60;;;;;;;1.41;97.28;99071.97;5222706;28;20491;-80
2021/01/29 04:04:18;;;;;;;11.02;5.47;;;;;;;1.35;97.88;99067.81;5220884;28;20036;-81
2021/01/29 04:07:05;;;;;;;10.43;6.32;;;;;;;1.31;98.75;99063.63;5221339;28;20028;-81
2021/01/29 04:09:53;;;;;;;10.48;6.97;;;;;;;1.26;98.14;99042.28;5222444;28;20024;-81
2021/01/29 04:12:38;;;;;;;14.18;7.53;;;;;;;1.28;99.04;99030.25;5217143;28;20021;-80
2021/01/29 04:15:34;;;;;;;10.77;6.82;;;;;;;1.38;99.05;99031.69;5222334;28;20025;-81
2021/01/29 04:18:31;;;;;;;13.82;7.57;;;;;;;1.36;99.03;99023.19;5222723;28;20024;-81
2021/01/29 04:21:16;;;;;;;15.73;8.27;;;;;;;1.28;99.23;99034.53;5220966;28;20028;-79
2021/01/29 04:23:54;;;;;;;14.85;8.63;;;;;;;1.27;99.34;99035.41;5222246;28;20104;-80
2021/01/29 04:26:29;;;;;;;12.55;7.80;;;;;;;1.33;99.29;99028.41;5221537;28;20555;-80
2021/01/29 04:29:12;;;;;;;15.68;9.15;;;;;;;1.25;99.79;99030.28;5222580;28;20032;-80
2021/01/29 04:31:44;;;;;;;13.80;8.77;;;;;;;1.20;100.00;99031.31;5223514;28;20403;-80
2021/01/29 04:34:18;;;;;;;15.50;8.57;;;;;;;1.12;100.00;99023.75;5222331;28;20029;-81
2021/01/29 04:36:53;;;;;;;14.37;8.67;;;;;;;1.24;100.00;99013.16;5222808;28;20025;-81
2021/01/29 04:39:29;;;;;;;15.38;8.77;;;;;;;1.15;100.00;99009.97;5221076;28;20111;-81
2021/01/29 04:42:37;;;;;;;13.73;8.82;;;;;;;1.12;100.00;99003.19;5222598;28;20104;-81
2021/01/29 04:45:33;;;;;;;17.70;8.95;;;;;;;1.09;100.00;99002.41;5225764;28;20021;-80
2021/01/29 04:48:55;;;;;;;17.27;10.23;;;;;;;1.13;100.00;99002.31;5226491;28;20055;-81
2021/01/29 04:51:58;;;;;;;14.07;9.25;;;;;;;0.97;100.00;98997.53;5226019;28;20044;-80
2021/01/29 04:54:50;;;;;;;17.17;9.85;;;;;;;0.88;100.00;98988.31;5225503;28;20025;-78
2021/01/29 04:57:48;;;;;;;18.48;9.70;;;;;;;0.81;100.00;98986.75;5224715;28;20028;-80
2021/01/29 05:00:29;;;;;;;19.20;9.38;;;;;;;0.79;100.00;98978.25;5223784;28;20030;-80
2021/01/29 05:03:24;;;;;;;17.92;10.02;;;;;;;0.91;100.00;98972.81;5223723;28;20016;-81
2021/01/29 05:06:18;;;;;;;16.83;9.77;;;;;;;0.95;100.00;98976.16;5224307;28;20033;-80
2021/01/29 05:09:25;;;;;;;16.35;9.32;;;;;;;0.83;100.00;98972.16;5224966;28;20017;-81
2021/01/29 05:11:55;;;;;;;20.30;10.18;;;;;;;0.75;100.00;98966.31;5226260;28;20021;-80
2021/01/29 05:14:47;;;;;;;18.70;10.37;;;;;;;0.78;100.00;98957.69;5226266;28;20028;-80
2021/01/29 05:17:26;;;;;;;21.75;11.52;;;;;;;0.64;100.00;98949.44;5226307;28;20271;-80
2021/01/29 05:20:27;;;;;;;19.00;11.52;;;;;;;0.70;100.00;98947.59;5225775;28;20028;-81
2021/01/29 05:23:25;;;;;;;21.25;11.32;;;;;;;0.63;100.00;98946.06;5226361;28;20033;-80
2021/01/29 05:26:42;;;;;;;17.48;10.20;;;;;;;0.67;100.00;98939.97;5224755;28;20028;-80
2021/01/29 05:29:51;;;;;;;20.85;9.98;;;;;;;0.65;100.00;98926.31;5224796;28;20057;-81
2021/01/29 05:32:36;;;;;;;21.40;13.18;;;;;;;0.63;100.00;98930.63;5228742;28;20033;-81
2021/01/29 05:35:44;;;;;;;22.65;12.07;;;;;;;0.70;100.00;98914.19;5225401;28;20079;-81
2021/01/29 05:38:36;;;;;;;22.45;12.70;;;;;;;0.67;100.00;98909.13;5221541;28;20045;-80
2021/01/29 05:41:43;;;;;;;20.92;12.90;;;;;;;0.72;100.00;98899.56;5225420;28;20024;-80
2021/01/29 05:44:50;;;;;;;20.00;11.90;;;;;;;0.66;100.00;98901.44;5227793;28;20707;-80
2021/01/29 05:47:36;;;;;;;18.98;10.90;;;;;;;0.70;100.00;98892.78;5225324;28;20112;-80
2021/01/29 05:50:26;;;;;;;;;;;;;;;0.68;100.00;98884.25;5226108;28;20103;-80
2021/01/29 05:53:08;;;;;;;20.17;11.52;;;;;;;0.72;100.00;98886.72;5225361;28;19913;-80
2021/01/29 05:55:59;;;;;;;20.33;10.48;;;;;;;0.70;100.00;98880.78;5224656;28;20017;-79
2021/01/29 05:58:44;;;;;;;18.05;11.32;;;;;;;0.72;100.00;98879.00;5224544;28;20051;-79
2021/01/29 06:01:36;;;;;;;21.58;12.10;;;;;;;0.74;100.00;98876.41;5227790;28;20560;-80
2021/01/29 06:04:13;;;;;;;23.02;12.50;;;;;;;0.76;100.00;98860.06;5220796;28;20432;-80
2021/01/29 06:07:20;;;;;;;18.25;11.77;;;;;;;0.80;100.00;98861.69;5224586;28;20060;-81
2021/01/29 06:10:12;;;;;;;17.58;10.82;;;;;;;0.78;100.00;98850.63;5225251;28;20079;-81
2021/01/29 06:13:20;;;;;;;19.50;11.55;;;;;;;0.92;100.00;98856.22;5225126;28;20025;-78
2021/01/29 06:16:24;;;;;;;18.98;11.35;;;;;;;0.94;100.00;98843.34;5224679;28;20025;-81
2021/01/29 06:19:22;;;;;;;21.27;12.45;;;;;;;0.90;100.00;98845.16;5224500;28;20067;-80
2021/01/29 06:22:28;;;;;;;20.17;12.10;;;;;;;0.90;100.00;98829.72;5223865;28;20021;-80
2021/01/29 06:25:09;;;;;;;20.02;10.13;;;;;;;1.02;100.00;98832.00;5222207;28;20024;-80
2021/01/29 06:27:49;;;;;;;17.70;10.52;;;;;;;1.02;100.00;98826.84;5221468;28;20105;-80
2021/01/29 06:30:34;;;;;;;16.60;10.23;;;;;;;1.04;100.00;98819.94;5221131;28;20021;-80
2021/01/29 06:33:13;;;;;;;17.05;9.40;;;;;;;1.06;100.00;98812.19;5221113;28;20021;-80
2021/01/29 06:35:52;;;;;;;15.52;8.77;;;;;;;1.08;100.00;98815.56;5222228;28;20563;-80
2021/01/29 06:38:35;;;;;;;18.48;9.48;;;;;;;1.07;100.00;98814.69;5223091;28;20052;-81
2021/01/29 06:41:36;;;;;;;14.45;9.07;;;;;;;1.04;100.00;98814.78;5224112;28;20049;-80
2021/01/29 06:44:14;;;;;;;11.38;7.55;;;;;;;1.02;100.00;98811.41;5228427;28;20029;-80
2021/01/29 06:47:01;;;;;;;13.15;7.35;;;;;;;0.98;100.00;98806.38;5231190;28;20078;-80
2021/01/29 06:49:40;;;;;;;13.73;8.05;;;;;;;1.00;100.00;98799.47;5228566;28;20118;-78
2021/01/29 06:52:43;;;;;;;14.45;8.05;;;;;;;1.01;100.00;98794.31;5228175;28;20044;-78
2021/01/29 06:55:21;;;;;;;12.52;7.88;;;;;;;0.98;100.00;98786.69;5228376;28;20025;-81
2021/01/29 06:58:16;;;;;;;11.60;7.60;;;;;;;0.98;100.00;98781.53;5227322;28;20091;-81
2021/01/29 07:01:10;;;;;;;13.55;7.85;;;;;;;1.04;100.00;98768.50;5226799;28;20028;-81
2021/01/29 07:04:07;;;;;;;11.32;7.45;;;;;;;0.98;100.00;98773.81;5234224;28;20028;-81
2021/01/29 07:06:55;;;;;;;14.15;8.38;;;;;;;0.96;100.00;98769.59;5225674;28;20025;-80
2021/01/29 07:09:59;;;;;;;15.48;9.43;;;;;;;0.95;99.51;98768.78;5228766;28;20107;-80
2021/01/29 07:12:37;;;;;;;16.42;9.85;;;;;;;1.02;99.46;98749.72;5228824;28;20487;-81
2021/01/29 07:15:13;;;;;;;15.88;9.05;;;;;;;0.96;99.71;98743.88;5228383;28;20089;-81
2021/01/29 07:18:03;;;;;;;19.83;11.65;;;;;;;0.99;100.00;98744.66;5228073;28;20028;-80
2021/01/29 07:20:42;;;;;;;18.65;11.68;;;;;;;1.04;100.00;98732.50;5227674;28;20492;-79
2021/01/29 07:23:38;;;;;;;19.88;10.88;;;;;;;1.01;100.00;98736.88;5225648;28;20039;-78
2021/01/29 07:26:17;;;;;;;21.92;12.32;;;;;;;0.96;100.00;98716.47;5227102;28;20024;-81
2021/01/29 07:29:09;;;;;;;21.42;12.63;;;;;;;0.96;100.00;98713.03;5227821;28;20025;-80
2021/01/29 07:31:53;;;;;;;22.05;12.73;;;;;;;0.99;100.00;98707.81;5227310;28;20021;-81
2021/01/29 07:34:42;;;;;;;20.58;13.60;;;;;;;1.00;100.00;98714.63;5221690;28;20048;-80
2021/01/29 07:37:27;;;;;;;19.35;13.30;;;;;;;0.93;100.00;98713.94;5225286;28;20031;-81
2021/01/29 07:40:15;;;;;;;18.55;11.98;;;;;;;0.96;100.00;98708.75;5226202;28;20112;-81
2021/01/29 07:43:06;;;;;;;21.63;13.77;;;;;;;0.94;100.00;98707.94;5225781;28;20031;-81
2021/01/29 07:46:14;;;;;;;24.17;13.82;;;;;;;0.95;100.00;98712.22;5226782;28;20032;-81
2021/01/29 07:49:23;;;;;;;21.52;12.73;;;;;;;0.89;100.00;98696.94;5228793;28;20025;-81
2021/01/29 07:51:59;;;;;;;21.52;12.23;;;;;;;0.95;100.00;98693.34;5226483;28;20476;-81
2021/01/29 07:55:01;;;;;;;20.00;10.43;;;;;;;1.04;100.00;98701.66;5226153;28;20392;-82
2021/01/29 07:58:04;;;;;;;16.17;9.88;;;;;;;0.98;99.55;98693.25;5226850;28;20076;-80
2021/01/29 08:01:00;;;;;;;18.42;9.02;;;;;;;1.04;99.37;98695.69;5231358;28;20450;-81
2021/01/29 08:03:48;;;;;;;14.05;8.23;;;;;;;1.09;98.96;98680.97;5226511;28;20021;-80
2021/01/29 08:06:30;;;;;;;13.85;8.88;;;;;;;1.05;99.15;98684.50;5227066;28;20057;-82
2021/01/29 08:09:25;;;;;;;14.60;7.35;;;;;;;1.05;98.26;98682.75;5227480;28;20048;-82
2021/01/29 08:11:59;;;;;;;11.93;6.80;;;;;;;1.17;97.91;98676.44;5227407;28;20074;-82
2021/01/29 08:14:48;;;;;;;14.07;7.53;;;;;;;1.13;97.84;98674.84;5226118;28;20055;-80
2021/01/29 08:17:53;;;;;;;11.68;7.28;;;;;;;1.21;97.08;98671.16;5225034;28;20032;-82
2021/01/29 08:20:32;;;;;;;11.63;7.20;;;;;;;1.26;97.61;98673.59;5226543;28;20021;-79
2021/01/29 08:23:14;;;;;;;14.45;7.55;;;;;;;1.25;97.29;98667.59;5227479;28;20068;-79
2021/01/29 08:26:11;;;;;;;14.15;8.18;;;;;;;1.32;97.76;98671.69;5225703;28;20025;-82
2021/01/29 08:29:00;;;;;;;15.60;7.68;;;;;;;1.30;98.12;98670.91;5227273;28;20040;-80
2021/01/29 08:31:50;;;;;;;11.40;7.28;;;;;;;1.24;98.53;98681.34;5233367;28;20021;-81
2021/01/29 08:34:59;;;;;;;14.98;7.53;;;;;;;1.23;99.16;98671.13;5228128;28;20052;-82
2021/01/29 08:37:51;;;;;;;11.80;7.95;;;;;;;1.26;100.00;98668.47;5226445;28;20078;-82
2021/01/29 08:40:32;;;;;;;13.23;7.95;;;;;;;1.26;99.39;98676.19;5229044;28;20552;-82
2021/01/29 08:43:43;;;;;;;11.73;7.45;;;;;;;1.16;100.00;98667.88;5232934;28;20055;-82
2021/01/29 08:46:52;;;;;;;12.18;7.38;;;;;;;1.09;100.00;98668.94;5234191;28;20051;-82
2021/01/29 08:49:48;;;;;;;13.02;7.53;;;;;;;0.94;100.00;98673.69;5234646;28;20572;-82
2021/01/29 08:52:18;;;;;;;;;;;;;;;0.99;100.00;98662.38;5232432;28;20040;-82
2021/01/29 08:55:26;;;;;;;11.93;7.50;;;;;;;0.92;100.00;98668.56;5230530;28;19909;-81
2021/01/29 08:58:14;;;;;;;12.05;7.13;;;;;;;0.96;100.00;98662.47;5221962;28;20029;-81
2021/01/29 09:00:45;;;;;;;10.63;6.03;;;;;;;0.88;100.00;98661.81;5224244;28;20650;-81
2021/01/29 09:03:24;;;;;;;13.95;5.97;;;;;;;0.85;100.00;98649.06;5228635;28;20080;-81
2021/01/29 09:06:18;;;;;;;10.75;6.20;;;;;;;0.90;100.00;98657.47;5220436;28;20025;-81
2021/01/29 09:09:05;;;;;;;9.85;5.68;;;;;;;0.93;100.00;98652.25;5222129;28;20021;-81
2021/01/29 09:11:42;;;;;;;13.05;6.15;;;;;;;1.00;100.00;98653.78;5221133;28;20021;-81
2021/01/29 09:14:25;;;;;;;9.90;6.13;;;;;;;1.00;100.00;98656.34;5221811;28;20052;-81
2021/01/29 09:17:01;;;;;;;10.35;5.35;;;;;;;0.96;100.00;98652.19;5222384;28;20035;-81
2021/01/29 09:19:35;;;;;;;13.25;6.75;;;;;;;1.01;100.00;98642.59;5222186;28;20021;-81
2021/01/29 09:22:34;;;;;;;10.73;6.60;;;;;;;0.96;100.00;98652.19;5222759;28;20045;-81
2021/01/29 09:25:34;;;;;;;11.63;6.15;;;;;;;0.92;100.00;98652.31;5221714;28;20037;-81
2021/01/29 09:28:13;;;;;;;10.07;5.78;;;;;;;0.85;100.00;98645.63;5220831;28;20032;-81
2021/01/29 09:30:56;;;;;;;11.27;5.45;;;;;;;0.91;100.00;98654.03;5225054;28;20032;-81
2021/01/29 09:33:48;;;;;;;8.60;4.93;;;;;;;0.91;100.00;98651.44;5230415;28;20390;-81
2021/01/29 09:36:22;;;;;;;9.98;4.70;;;;;;;0.93;100.00;98654.81;5225852;28;20033;-81
2021/01/29 09:38:56;;;;;;;7.88;4.57;;;;;;;0.94;100.00;98653.97;5225650;28;20036;-81
2021/01/29 09:41:33;;;;;;;9.32;5.28;;;;;;;0.87;100.00;98647.28;5225584;28;20052;-81
2021/01/29 09:44:13;;;;;;;8.23;4.20;;;;;;;0.76;100.00;98638.19;5224259;28;20029;-81
2021/01/29 09:46:45;;;;;;;6.70;4.22;;;;;;;0.84;100.00;98641.38;5225877;28;20552;-81
2021/01/29 09:49:23;;;;;;;9.98;4.43;;;;;;;0.77;100.00;98645.03;5225909;28;20027;-81
2021/01/29 09:52:22;;;;;;;10.07;4.10;;;;;;;0.74;100.00;98638.22;5225938;28;20028;-82
2021/01/29 09:55:17;;;;;;;8.38;3.35;;;;;;;0.71;100.00;98632.34;5223587;28;20021;-82
2021/01/29 09:57:57;;;;;;;5.57;3.38;;;;;;;0.73;100.00;98635.72;5228420;28;20072;-82
2021/01/29 10:00:34;;;;;;;5.55;3.10;;;;;;;0.58;100.00;98626.69;5234079;28;20064;-82
2021/01/29 10:03:16;;;;;;;6.53;3.25;;;;;;;0.63;100.00;98621.44;5226635;28;20100;-81
2021/01/29 10:06:05;;;;;;;7.30;3.00;;;;;;;0.62;100.00;98625.75;5225378;28;20055;-80
2021/01/29 10:08:40;;;;;;;6.22;3.47;;;;;;;0.66;100.00;98629.03;5224015;28;20028;-81
2021/01/29 10:11:19;;;;;;;8.90;3.85;;;;;;;0.67;100.00;98615.31;5224727;28;20035;-81
2021/01/29 10:14:15;;;;;;;5.63;3.60;;;;;;;0.60;100.00;98630.09;5225509;28;20037;-81
2021/01/29 10:16:53;;;;;;;5.55;3.38;;;;;;;0.66;100.00;98617.06;5225530;28;20052;-81
2021/01/29 10:19:26;;;;;;;6.60;3.30;;;;;;;0.59;100.00;98610.38;5224743;28;20583;-81
2021/01/29 10:21:56;;;;;;;6.22;3.88;;;;;;;0.64;100.00;98616.25;5224842;28;20051;-81
2021/01/29 10:24:54;;;;;;;7.30;4.30;;;;;;;0.52;100.00;98611.44;5224552;28;20372;-80
2021/01/29 10:27:57;;;;;;;7.90;4.47;;;;;;;0.52;100.00;98603.75;5225763;28;20024;-81
2021/01/29 10:30:40;;;;;;;8.05;4.28;;;;;;;0.45;100.00;98607.38;5228737;28;20116;-81
2021/01/29 10:33:18;;;;;;;6.03;3.40;;;;;;;0.27;100.00;98607.88;5222458;28;20025;-79
2021/01/29 10:36:01;;;;;;;7.43;4.55;;;;;;;0.29;100.00;98598.38;5223984;28;20511;-79
2021/01/29 10:38:49;;;;;;;13.35;4.80;;;;;;;0.23;100.00;98603.66;5224169;28;20507;-80
2021/01/29 10:41:32;;;;;;;7.75;5.05;;;;;;;0.24;100.00;98607.91;5223541;28;20028;-80
2021/01/29 10:44:09;;;;;;;7.68;4.30;;;;;;;0.18;100.00;98597.81;5230255;28;20025;-79
2021/01/29 10:47:02;;;;;;;10.77;5.15;;;;;;;0.20;100.00;98603.75;5231526;28;20036;-82
2021/01/29 10:49:58;;;;;;;6.97;4.95;;;;;;;0.26;100.00;98601.03;5230547;28;20017;-81
2021/01/29 10:52:46;;;;;;;9.68;5.18;;;;;;;0.23;100.00;98606.22;5230492;28;20025;-79
2021/01/29 10:55:24;;;;;;;9.35;5.50;;;;;;;0.23;100.00;98616.50;5229931;28;20503;-80
2021/01/29 10:58:33;;;;;;;8.52;5.40;;;;;;;0.29;100.00;98618.06;5229942;28;20028;-80
2021/01/29 11:01:10;;;;;;;12.15;6.00;;;;;;;0.28;100.00;98611.25;5208347;28;20045;-80
2021/01/29 11:03:46;;;;;;;6.97;4.40;;;;;;;0.18;100.00;98615.78;5232521;28;20088;-82
2021/01/29 11:06:21;;;;;;;10.27;5.90;;;;;;;0.27;100.00;98605.28;5228598;28;20047;-81
2021/01/29 11:08:56;;;;;;;10.23;6.30;;;;;;;0.32;100.00;98608.56;5228582;28;20322;-78
2021/01/29 11:11:38;;;;;;;9.05;5.25;;;;;;;0.12;100.00;98623.66;5228363;28;20033;-78
2021/01/29 11:14:34;;;;;;;11.55;6.78;;;;;;;0.20;100.00;98608.88;5229473;28;20021;-82
2021/01/29 11:17:23;;;;;;;11.35;7.13;;;;;;;0.09;100.00;98604.91;5228657;28;20176;-82
2021/01/29 11:19:54;;;;;;;13.15;7.70;;;;;;;0.20;100.00;98614.03;5230788;28;20422;-79
2021/01/29 11:22:38;;;;;;;11.57;7.60;;;;;;;0.21;100.00;98612.31;5230027;28;20025;-82
2021/01/29 11:25:46;;;;;;;12.73;7.18;;;;;;;0.25;100.00;98596.75;5228973;28;20430;-78
2021/01/29 11:28:54;;;;;;;14.65;7.85;;;;;;;0.24;100.00;98595.06;5228882;28;20517;-78
2021/01/29 11:31:39;;;;;;;11.45;6.80;;;;;;;0.11;100.00;98596.31;5216646;28;20040;-80
2021/01/29 11:34:21;;;;;;;13.65;8.45;;;;;;;0.07;100.00;98591.28;5228676;28;20070;-81
2021/01/29 11:36:59;;;;;;;14.57;9.15;;;;;;;-0.02;100.00;98594.94;5230452;28;20029;-80
2021/01/29 11:39:48;;;;;;;12.93;8.27;;;;;;;-0.05;100.00;98583.88;5229683;28;20033;-79
2021/01/29 11:42:23;;;;;;;12.75;7.93;;;;;;;-0.07;100.00;98580.53;5229063;28;20028;-80
2021/01/29 11:45:02;;;;;;;14.50;7.82;;;;;;;-0.10;100.00;98584.88;5228275;28;20036;-80
2021/01/29 11:47:41;;;;;;;11.35;7.75;;;;;;;-0.11;100.00;98584.06;5227850;28;20036;-81
2021/01/29 11:50:14;;;;;;;11.05;7.10;;;;;;;-0.12;100.00;98578.94;5206870;28;20052;-79
2021/01/29 11:53:00;;;;;;;9.85;6.75;;;;;;;-0.17;100.00;98580.78;5204717;28;20618;-81
2021/01/29 11:55:45;;;;;;;8.02;5.72;;;;;;;-0.20;100.00;98584.25;5209467;28;20026;-81
2021/01/29 11:58:26;;;;;;;8.73;5.80;;;;;;;-0.22;100.00;98586.03;5231023;28;20075;-81
2021/01/29 12:01:14;;;;;;;13.38;8.18;;;;;;;-0.27;100.00;98576.75;5229591;28;20491;-79
2021/01/29 12:03:54;;;;;;;10.65;5.70;;;;;;;-0.26;100.00;98588.69;5229095;28;20025;-78
2021/01/29 12:06:35;;;;;;;9.23;5.35;;;;;;;-0.33;100.00;98574.34;5218849;28;20078;-78
2021/01/29 12:09:19;;;;;;;11.02;6.97;;;;;;;-0.20;100.00;98578.31;5225955;28;20419;-79
2021/01/29 12:12:03;;;;;;;11.30;7.15;;;;;;;-0.14;100.00;98570.44;5208200;28;20033;-79
2021/01/29 12:14:54;;;;;;;11.98;7.18;;;;;;;-0.17;100.00;98561.13;5205926;28;20025;-79
2021/01/29 12:17:28;;;;;;;11.73;7.45;;;;;;;-0.13;100.00;98561.88;5219696;28;20020;-79
2021/01/29 12:20:03;;;;;;;9.52;6.63;;;;;;;-0.14;100.00;98567.88;5226681;28;20021;-78
2021/01/29 12:22:47;;;;;;;10.98;7.47;;;;;;;-0.11;100.00;98562.66;5226677;28;20430;-79
2021/01/29 12:25:26;;;;;;;10.70;7.15;;;;;;;-0.09;100.00;98568.59;5225530;28;20029;-78
2021/01/29 12:28:35;;;;;;;12.10;8.10;;;;;;;-0.02;100.00;98553.84;5225107;28;20326;-78
2021/01/29 12:31:21;;;;;;;13.43;8.82;;;;;;;0.17;100.00;98544.78;5223606;28;20043;-78
2021/01/29 12:34:02;;;;;;;12.05;7.88;;;;;;;0.16;100.00;98537.09;5222622;28;20055;-77
2021/01/29 12:36:36;;;;;;;12.98;8.48;;;;;;;0.12;100.00;98540.66;5225975;28;20021;-81
2021/01/29 12:39:30;;;;;;;10.90;7.78;;;;;;;0.10;100.00;98550.97;5225880;28;20027;-80
2021/01/29 12:42:07;;;;;;;12.25;7.72;;;;;;;0.11;100.00;98541.53;5224657;28;20021;-79
2021/01/29 12:44:47;;;;;;;13.23;8.40;;;;;;;0.09;100.00;98544.16;5222626;28;20055;-80
2021/01/29 12:47:32;;;;;;;13.05;8.25;;;;;;;0.09;100.00;98536.47;5223980;28;20029;-79
2021/01/29 12:50:24;;;;;;;12.38;8.05;;;;;;;0.05;100.00;98545.09;5222260;28;20021;-79